KSUU/SUU METAR and TAF weather

Enter ICAO airport designator
Station Type Date Time Source
KSUU METAR 2019/06/18 15:58 UTC NOAA

KSUU 181558Z AUTO 23013KT 10SM CLR 22/14 A2989 RMK AO2 SLP128 T02160140


Station Type Date Time Source
KSUU Decoded METAR 2019/06/18 15:58 UTC NOAA

Fairfield / Travis Air Force Base, CA, United States (KSUU) 38-16N 121-57W 22M
Jun 18, 2019 - 11:58 AM EDT / 2019.06.18 1558 UTC
Wind: from the SW (230 degrees) at 15 MPH (13 KT):0
Visibility: 10 mile(s):0
Sky conditions: clear
Temperature: 70.9 F (21.6 C)
Dew Point: 57.2 F (14.0 C)
Relative Humidity: 61%
Pressure (altimeter): 29.89 in. Hg (1012 hPa)
ob: KSUU 181558Z AUTO 23013KT 10SM CLR 22/14 A2989 RMK AO2 SLP128 T02160140
cycle: 16

Station Type Date Time Source
KSUU TAF 2019/06/18 11:06 UTC NOAA

TAF KSUU 181100Z 1811/1917 23012KT 9999 SKC QNH2982INS
BECMG 1822/1823 23015G25KT 9999 SKC QNH2979INS TX34/1822Z TN15/1813Z

Example: see airport list